AUA26K LOWW-EDDS
Flight info
| Callsign | AUA26K |
|---|---|
| Flight time | N/A |
| Altitude | 30000 |
| Route | LUGEM DCT KIRDI DCT EBEDA L173 MAH/N0374F240 L173 DODIL T127 TEKSI TEKSI5A |
| Aircraft | A320/M-SDE3FGHIRWY/LB1 |
Departure
| Time | 2026-04-25 17:22 |
|---|---|
| Airport | Vienna International Airport (LOWW) |
Arrival
| Time | N/A |
|---|---|
| Airport | Stuttgart Airport (EDDS) |
| Time | Latitude | Longitude | Altitude | Speed | Heading |
|---|---|---|---|---|---|
| 2026-04-25 16:51 | 48.11897 | 16.56768 | 618 ft | 0 kts | 206° |
| 2026-04-25 17:13 | 48.11911 | 16.56777 | 623 ft | 4 kts | 204° |
| 2026-04-25 17:14 | 48.11936 | 16.56792 | 626 ft | 4 kts | 194° |
| 2026-04-25 17:14 | 48.11961 | 16.56796 | 620 ft | 4 kts | 155° |
| 2026-04-25 17:14 | 48.11971 | 16.56785 | 626 ft | 0 kts | 116° |
| 2026-04-25 17:17 | 48.11957 | 16.56828 | 618 ft | 12 kts | 116° |
| 2026-04-25 17:17 | 48.11903 | 16.56991 | 610 ft | 18 kts | 118° |
| 2026-04-25 17:18 | 48.11857 | 16.57153 | 610 ft | 16 kts | 94° |
| 2026-04-25 17:18 | 48.11827 | 16.57302 | 619 ft | 14 kts | 119° |
| 2026-04-25 17:18 | 48.11756 | 16.57368 | 615 ft | 11 kts | 159° |
| 2026-04-25 17:18 | 48.11685 | 16.57397 | 610 ft | 10 kts | 166° |
| 2026-04-25 17:19 | 48.11620 | 16.57422 | 617 ft | 9 kts | 163° |
| 2026-04-25 17:19 | 48.11575 | 16.57470 | 610 ft | 9 kts | 122° |
| 2026-04-25 17:19 | 48.11508 | 16.57591 | 613 ft | 17 kts | 153° |
| 2026-04-25 17:19 | 48.11402 | 16.57640 | 612 ft | 15 kts | 165° |
| 2026-04-25 17:20 | 48.11305 | 16.57679 | 616 ft | 14 kts | 164° |
| 2026-04-25 17:20 | 48.11208 | 16.57633 | 612 ft | 17 kts | 205° |
| 2026-04-25 17:20 | 48.11097 | 16.57547 | 616 ft | 17 kts | 213° |
| 2026-04-25 17:20 | 48.11005 | 16.57466 | 609 ft | 15 kts | 207° |
| 2026-04-25 17:21 | 48.10971 | 16.57366 | 616 ft | 12 kts | 282° |
| 2026-04-25 17:21 | 48.10999 | 16.57276 | 618 ft | 10 kts | 296° |
| 2026-04-25 17:21 | 48.11091 | 16.56988 | 623 ft | 64 kts | 295° |
| 2026-04-25 17:21 | 48.11366 | 16.56134 | 614 ft | 123 kts | 296° |
| 2026-04-25 17:22 | 48.11805 | 16.54775 | 786 ft | 152 kts | 294° |
| 2026-04-25 17:22 | 48.12088 | 16.53834 | 1235 ft | 153 kts | 289° |
| 2026-04-25 17:22 | 48.12016 | 16.51646 | 1975 ft | 170 kts | 263° |
| 2026-04-25 17:22 | 48.11816 | 16.49804 | 2398 ft | 187 kts | 265° |
| 2026-04-25 17:23 | 48.11625 | 16.47788 | 2844 ft | 205 kts | 264° |
| 2026-04-25 17:23 | 48.11323 | 16.45608 | 3239 ft | 231 kts | 260° |
| 2026-04-25 17:23 | 48.10906 | 16.43142 | 3819 ft | 251 kts | 258° |
| 2026-04-25 17:23 | 48.10444 | 16.40547 | 4720 ft | 258 kts | 258° |
| 2026-04-25 17:24 | 48.09984 | 16.37962 | 5641 ft | 262 kts | 259° |
| 2026-04-25 17:24 | 48.09872 | 16.35260 | 6596 ft | 261 kts | 278° |
| 2026-04-25 17:24 | 48.10083 | 16.32581 | 7509 ft | 263 kts | 279° |
| 2026-04-25 17:24 | 48.10305 | 16.29851 | 8436 ft | 266 kts | 279° |
| 2026-04-25 17:25 | 48.10529 | 16.27081 | 9317 ft | 270 kts | 279° |
| 2026-04-25 17:25 | 48.10755 | 16.24279 | 10186 ft | 274 kts | 279° |
| 2026-04-25 17:25 | 48.10992 | 16.21332 | 10557 ft | 297 kts | 279° |
| 2026-04-25 17:25 | 48.11248 | 16.18174 | 11015 ft | 313 kts | 279° |
| 2026-04-25 17:26 | 48.11511 | 16.14904 | 11714 ft | 320 kts | 279° |
| 2026-04-25 17:26 | 48.11771 | 16.11582 | 12481 ft | 324 kts | 279° |
| 2026-04-25 17:26 | 48.12030 | 16.08221 | 13268 ft | 328 kts | 278° |
| 2026-04-25 17:26 | 48.12294 | 16.04791 | 13997 ft | 332 kts | 278° |
| 2026-04-25 17:27 | 48.12556 | 16.01382 | 14664 ft | 336 kts | 278° |
| 2026-04-25 17:27 | 48.12828 | 15.97837 | 15340 ft | 340 kts | 278° |
| 2026-04-25 17:27 | 48.13094 | 15.94379 | 16015 ft | 343 kts | 278° |
| 2026-04-25 17:27 | 48.13188 | 15.93160 | 16250 ft | 344 kts | 278° |
| 2026-04-25 17:28 | 48.13650 | 15.87191 | 17350 ft | 350 kts | 278° |
| 2026-04-25 17:28 | 48.13930 | 15.83552 | 18027 ft | 354 kts | 278° |
| 2026-04-25 17:28 | 48.14210 | 15.79891 | 18640 ft | 357 kts | 278° |
| 2026-04-25 17:28 | 48.14494 | 15.76151 | 19242 ft | 360 kts | 278° |
| 2026-04-25 17:29 | 48.14778 | 15.72422 | 19836 ft | 363 kts | 278° |
| 2026-04-25 17:29 | 48.15062 | 15.68676 | 20424 ft | 366 kts | 278° |
| 2026-04-25 17:29 | 48.15348 | 15.64865 | 21031 ft | 368 kts | 278° |
| 2026-04-25 17:29 | 48.15630 | 15.61025 | 21611 ft | 371 kts | 277° |
| 2026-04-25 17:30 | 48.15912 | 15.57165 | 22189 ft | 374 kts | 277° |
| 2026-04-25 17:30 | 48.16199 | 15.53262 | 22767 ft | 378 kts | 277° |
| 2026-04-25 17:30 | 48.16489 | 15.49345 | 23351 ft | 381 kts | 277° |
| 2026-04-25 17:30 | 48.16776 | 15.45414 | 23846 ft | 384 kts | 277° |
| 2026-04-25 17:31 | 48.17068 | 15.41389 | 24310 ft | 386 kts | 277° |
| 2026-04-25 17:31 | 48.17322 | 15.37380 | 24765 ft | 389 kts | 275° |
| 2026-04-25 17:31 | 48.17483 | 15.33316 | 25224 ft | 391 kts | 274° |
| 2026-04-25 17:31 | 48.17580 | 15.29229 | 25654 ft | 394 kts | 273° |
| 2026-04-25 17:32 | 48.17645 | 15.25172 | 26077 ft | 397 kts | 272° |
| 2026-04-25 17:32 | 48.17704 | 15.21023 | 26481 ft | 399 kts | 272° |
| 2026-04-25 17:32 | 48.17771 | 15.16857 | 26899 ft | 401 kts | 273° |
| 2026-04-25 17:32 | 48.17852 | 15.12655 | 27305 ft | 404 kts | 273° |
| 2026-04-25 17:33 | 48.17940 | 15.08445 | 27701 ft | 406 kts | 273° |
| 2026-04-25 17:33 | 48.18034 | 15.04211 | 28085 ft | 408 kts | 273° |
| 2026-04-25 17:33 | 48.18131 | 14.99961 | 28472 ft | 411 kts | 273° |
| 2026-04-25 17:33 | 48.18226 | 14.95648 | 28861 ft | 413 kts | 273° |
| 2026-04-25 17:34 | 48.18318 | 14.91349 | 29222 ft | 415 kts | 273° |
| 2026-04-25 17:34 | 48.18411 | 14.87010 | 29571 ft | 418 kts | 273° |
| 2026-04-25 17:34 | 48.18502 | 14.82652 | 29934 ft | 420 kts | 273° |
| 2026-04-25 17:34 | 48.18592 | 14.78304 | 30021 ft | 413 kts | 273° |
| 2026-04-25 17:35 | 48.18673 | 14.74096 | 30030 ft | 397 kts | 273° |
| 2026-04-25 17:35 | 48.18750 | 14.69969 | 30027 ft | 392 kts | 273° |
| 2026-04-25 17:35 | 48.18900 | 14.61847 | 30028 ft | 389 kts | 273° |
| 2026-04-25 17:36 | 48.19047 | 14.53751 | 30030 ft | 389 kts | 272° |
| 2026-04-25 17:36 | 48.19183 | 14.45695 | 30031 ft | 389 kts | 272° |
| 2026-04-25 17:37 | 48.19315 | 14.37599 | 30026 ft | 389 kts | 272° |
| 2026-04-25 17:37 | 48.19439 | 14.29466 | 30026 ft | 388 kts | 272° |
| 2026-04-25 17:38 | 48.19520 | 14.24098 | 30024 ft | 388 kts | 272° |
| 2026-04-25 17:38 | 48.19679 | 14.13279 | 30019 ft | 388 kts | 272° |
| 2026-04-25 17:39 | 48.19791 | 14.05198 | 30013 ft | 388 kts | 272° |
| 2026-04-25 17:39 | 48.19898 | 13.97170 | 30017 ft | 388 kts | 272° |
| 2026-04-25 17:40 | 48.19995 | 13.89075 | 30018 ft | 388 kts | 272° |
| 2026-04-25 17:40 | 48.20092 | 13.80991 | 30019 ft | 388 kts | 272° |
| 2026-04-25 17:41 | 48.20177 | 13.72887 | 30027 ft | 388 kts | 272° |
| 2026-04-25 17:41 | 48.20253 | 13.64791 | 30029 ft | 388 kts | 272° |
| 2026-04-25 17:42 | 48.20315 | 13.58058 | 30031 ft | 389 kts | 272° |
| 2026-04-25 17:42 | 48.20394 | 13.49976 | 30035 ft | 389 kts | 272° |
| 2026-04-25 17:43 | 48.20462 | 13.41859 | 30033 ft | 389 kts | 272° |
| 2026-04-25 17:43 | 48.20524 | 13.33732 | 30036 ft | 389 kts | 272° |
| 2026-04-25 17:44 | 48.20581 | 13.25619 | 30034 ft | 390 kts | 272° |
| 2026-04-25 17:44 | 48.20626 | 13.17473 | 30039 ft | 390 kts | 272° |
| 2026-04-25 17:45 | 48.20659 | 13.10718 | 30038 ft | 390 kts | 272° |
| 2026-04-25 17:45 | 48.20700 | 13.01211 | 30036 ft | 391 kts | 272° |
| 2026-04-25 17:46 | 48.20733 | 12.93062 | 30038 ft | 391 kts | 272° |
| 2026-04-25 17:46 | 48.20762 | 12.84963 | 30066 ft | 386 kts | 271° |
| 2026-04-25 17:47 | 48.20431 | 12.76989 | 30048 ft | 386 kts | 266° |
| 2026-04-25 17:47 | 48.19900 | 12.68972 | 30042 ft | 387 kts | 266° |
| 2026-04-25 17:48 | 48.19098 | 12.56944 | 30037 ft | 388 kts | 266° |
| 2026-04-25 17:49 | 48.18552 | 12.48867 | 30034 ft | 389 kts | 266° |
| 2026-04-25 17:49 | 48.18000 | 12.40798 | 30037 ft | 389 kts | 266° |
| 2026-04-25 17:50 | 48.17439 | 12.32721 | 30034 ft | 390 kts | 266° |
| 2026-04-25 17:50 | 48.16874 | 12.24623 | 30032 ft | 391 kts | 266° |
| 2026-04-25 17:51 | 48.16301 | 12.16524 | 30030 ft | 392 kts | 266° |
| 2026-04-25 17:51 | 48.16311 | 12.08394 | 30027 ft | 389 kts | 278° |
| 2026-04-25 17:52 | 48.16839 | 12.00366 | 30031 ft | 391 kts | 278° |
| 2026-04-25 17:52 | 48.17363 | 11.92245 | 30029 ft | 392 kts | 278° |
| 2026-04-25 17:53 | 48.17880 | 11.84128 | 30030 ft | 393 kts | 278° |
| 2026-04-25 17:53 | 48.18959 | 11.76154 | 30031 ft | 391 kts | 287° |
| 2026-04-25 17:54 | 48.20282 | 11.68235 | 30035 ft | 391 kts | 287° |
| 2026-04-25 17:54 | 48.21588 | 11.60320 | 30035 ft | 392 kts | 287° |
| 2026-04-25 17:55 | 48.22891 | 11.52379 | 30040 ft | 392 kts | 287° |
| 2026-04-25 17:55 | 48.24189 | 11.44446 | 30059 ft | 392 kts | 287° |
| 2026-04-25 17:56 | 48.25489 | 11.36492 | 30062 ft | 391 kts | 289° |
| 2026-04-25 17:56 | 48.27811 | 11.29242 | 30077 ft | 384 kts | 309° |
| 2026-04-25 17:57 | 48.31416 | 11.23369 | 30069 ft | 382 kts | 316° |
| 2026-04-25 17:57 | 48.35134 | 11.17629 | 30072 ft | 382 kts | 315° |
| 2026-04-25 17:58 | 48.38828 | 11.11888 | 30075 ft | 384 kts | 315° |
| 2026-04-25 17:58 | 48.40722 | 11.08937 | 30086 ft | 396 kts | 315° |
| 2026-04-25 17:58 | 48.42650 | 11.05934 | 30086 ft | 407 kts | 315° |
| 2026-04-25 17:59 | 48.46573 | 10.99801 | 30045 ft | 392 kts | 315° |
| 2026-04-25 17:59 | 48.48454 | 10.96860 | 29537 ft | 387 kts | 315° |
| 2026-04-25 17:59 | 48.50281 | 10.94003 | 29058 ft | 382 kts | 315° |
| 2026-04-25 17:59 | 48.52099 | 10.91129 | 28586 ft | 377 kts | 314° |
| 2026-04-25 18:00 | 48.53908 | 10.88232 | 28122 ft | 372 kts | 314° |
| 2026-04-25 18:00 | 48.55669 | 10.85394 | 27678 ft | 368 kts | 314° |
| 2026-04-25 18:00 | 48.57385 | 10.82628 | 27244 ft | 364 kts | 314° |
| 2026-04-25 18:00 | 48.59112 | 10.79851 | 26807 ft | 361 kts | 314° |
| 2026-04-25 18:01 | 48.60829 | 10.77112 | 26374 ft | 358 kts | 314° |
| 2026-04-25 18:01 | 48.62544 | 10.74395 | 25938 ft | 355 kts | 314° |
| 2026-04-25 18:01 | 48.64254 | 10.71692 | 25476 ft | 352 kts | 314° |
| 2026-04-25 18:01 | 48.65955 | 10.69004 | 25035 ft | 350 kts | 315° |
| 2026-04-25 18:02 | 48.67618 | 10.66368 | 24563 ft | 349 kts | 315° |
| 2026-04-25 18:02 | 48.69288 | 10.63712 | 24088 ft | 348 kts | 315° |
| 2026-04-25 18:02 | 48.70892 | 10.60976 | 23589 ft | 349 kts | 307° |
| 2026-04-25 18:02 | 48.72059 | 10.57776 | 23045 ft | 351 kts | 293° |
| 2026-04-25 18:03 | 48.72680 | 10.54171 | 22557 ft | 352 kts | 279° |
| 2026-04-25 18:03 | 48.72705 | 10.50487 | 22070 ft | 353 kts | 266° |
| 2026-04-25 18:03 | 48.72404 | 10.46784 | 21586 ft | 352 kts | 265° |
| 2026-04-25 18:03 | 48.72099 | 10.43120 | 21112 ft | 351 kts | 265° |
| 2026-04-25 18:04 | 48.71798 | 10.39504 | 20640 ft | 349 kts | 265° |
| 2026-04-25 18:04 | 48.71492 | 10.35810 | 20157 ft | 348 kts | 265° |
| 2026-04-25 18:04 | 48.71186 | 10.32170 | 19690 ft | 347 kts | 265° |
| 2026-04-25 18:04 | 48.70882 | 10.28550 | 19226 ft | 346 kts | 265° |
| 2026-04-25 18:05 | 48.70580 | 10.24940 | 18761 ft | 345 kts | 265° |
| 2026-04-25 18:05 | 48.70280 | 10.21344 | 18284 ft | 345 kts | 265° |
| 2026-04-25 18:05 | 48.70079 | 10.17755 | 17758 ft | 342 kts | 274° |
| 2026-04-25 18:05 | 48.70229 | 10.14122 | 16847 ft | 351 kts | 275° |
| 2026-04-25 18:06 | 48.70404 | 10.10442 | 15897 ft | 361 kts | 276° |
| 2026-04-25 18:06 | 48.70597 | 10.06535 | 14915 ft | 371 kts | 275° |
| 2026-04-25 18:06 | 48.70794 | 10.02587 | 13956 ft | 380 kts | 275° |
| 2026-04-25 18:06 | 48.70993 | 9.98561 | 12883 ft | 387 kts | 275° |
| 2026-04-25 18:07 | 48.71192 | 9.94462 | 11827 ft | 392 kts | 275° |
| 2026-04-25 18:07 | 48.71388 | 9.90354 | 10792 ft | 395 kts | 276° |
| 2026-04-25 18:07 | 48.71696 | 9.86268 | 10002 ft | 387 kts | 279° |
| 2026-04-25 18:07 | 48.72110 | 9.82386 | 8973 ft | 369 kts | 281° |
| 2026-04-25 18:08 | 48.72569 | 9.78660 | 8386 ft | 343 kts | 282° |
| 2026-04-25 18:08 | 48.72875 | 9.76214 | 8068 ft | 325 kts | 282° |
| 2026-04-25 18:08 | 48.73256 | 9.73083 | 7673 ft | 305 kts | 281° |
| 2026-04-25 18:08 | 48.73610 | 9.70009 | 7272 ft | 287 kts | 281° |
| 2026-04-25 18:09 | 48.73930 | 9.67111 | 6876 ft | 271 kts | 281° |
| 2026-04-25 18:09 | 48.74237 | 9.64369 | 6468 ft | 260 kts | 281° |
| 2026-04-25 18:09 | 48.74535 | 9.61730 | 6067 ft | 246 kts | 281° |
| 2026-04-25 18:09 | 48.74627 | 9.60909 | 5951 ft | 242 kts | 281° |
| 2026-04-25 18:10 | 48.75070 | 9.56909 | 5378 ft | 223 kts | 281° |
| 2026-04-25 18:10 | 48.75070 | 9.54592 | 5201 ft | 218 kts | 258° |
| 2026-04-25 18:10 | 48.74662 | 9.52371 | 4937 ft | 219 kts | 256° |
| 2026-04-25 18:10 | 48.74247 | 9.50190 | 4666 ft | 216 kts | 256° |
| 2026-04-25 18:11 | 48.73833 | 9.47986 | 4372 ft | 216 kts | 257° |
| 2026-04-25 18:11 | 48.73429 | 9.45826 | 4072 ft | 213 kts | 256° |
| 2026-04-25 18:11 | 48.73030 | 9.43694 | 3800 ft | 204 kts | 256° |
| 2026-04-25 18:11 | 48.72656 | 9.41699 | 3556 ft | 189 kts | 257° |
| 2026-04-25 18:12 | 48.72311 | 9.39860 | 3293 ft | 173 kts | 257° |
| 2026-04-25 18:12 | 48.71998 | 9.38189 | 3072 ft | 159 kts | 258° |
| 2026-04-25 18:12 | 48.71706 | 9.36634 | 2889 ft | 148 kts | 258° |
| 2026-04-25 18:12 | 48.71435 | 9.35186 | 2693 ft | 143 kts | 257° |
| 2026-04-25 18:13 | 48.71164 | 9.33752 | 2497 ft | 140 kts | 258° |
| 2026-04-25 18:13 | 48.70900 | 9.32342 | 2308 ft | 140 kts | 258° |
| 2026-04-25 18:13 | 48.70636 | 9.30927 | 2120 ft | 139 kts | 258° |
| 2026-04-25 18:14 | 48.70114 | 9.28132 | 1747 ft | 137 kts | 257° |
| 2026-04-25 18:14 | 48.69850 | 9.26750 | 1556 ft | 136 kts | 258° |
| 2026-04-25 18:14 | 48.69693 | 9.25919 | 1457 ft | 138 kts | 258° |
| 2026-04-25 18:14 | 48.69423 | 9.24522 | 1360 ft | 134 kts | 259° |